Time;durP1;ratioP1;P1;durP2;ratioP2;P2;SDS_P1;SDS_P2;PMS_P1;PMS_P2;Temp;Humidity;BMP_temperature;BMP_pressure;BME280_temperature;BME280_humidity;BME280_pressure;Samples;Min_cycle;Max_cycle;Signal;HPM_P1;HPM_P2
2022/08/11 00:01:27;;;;;;;5.20;2.10;;;;;16.20;97775.80;;;;110763;1249;41270;-63
2022/08/11 00:04:01;;;;;;;5.40;2.30;;;;;16.14;97776.20;;;;110659;1251;41160;-63
2022/08/11 00:06:37;;;;;;;4.70;2.00;;;;;16.10;97775.00;;;;110796;1249;41279;-63
2022/08/11 00:09:11;;;;;;;4.00;2.10;;;;;16.10;97769.20;;;;110768;1249;41277;-63
2022/08/11 00:11:46;;;;;;;4.20;2.00;;;;;16.10;97765.80;;;;110694;1249;41725;-63
2022/08/11 00:14:22;;;;;;;4.80;2.20;;;;;16.10;97763.40;;;;110655;1249;41279;-63
2022/08/11 00:16:58;;;;;;;4.00;1.90;;;;;16.16;97758.00;;;;110699;1251;41627;-63
2022/08/11 00:19:33;;;;;;;4.50;2.20;;;;;16.20;97760.00;;;;110942;1249;41817;-63
2022/08/11 00:22:23;;;;;;;4.80;2.20;;;;;16.10;97762.80;;;;110661;1250;41323;-64
2022/08/11 00:24:54;;;;;;;5.70;2.10;;;;;16.10;97756.40;;;;110898;1250;41743;-64
2022/08/11 00:27:33;;;;;;;4.60;2.10;;;;;16.10;97761.00;;;;110874;1250;41274;-63
2022/08/11 00:30:05;;;;;;;5.90;2.60;;;;;16.10;97752.60;;;;110835;1250;41545;-64
2022/08/11 00:32:37;;;;;;;8.90;2.80;;;;;16.10;97750.80;;;;110834;1250;41597;-63
2022/08/11 00:35:09;;;;;;;6.20;2.90;;;;;16.00;97751.20;;;;110824;1250;41145;-64
2022/08/11 00:37:59;;;;;;;5.40;2.60;;;;;16.00;97752.00;;;;110833;1251;41178;-63
2022/08/11 00:41:03;;;;;;;4.90;2.30;;;;;15.80;97744.80;;;;110665;1250;42395;-64
2022/08/11 00:43:36;;;;;;;3.80;2.00;;;;;15.80;97748.20;;;;110827;1249;41155;-63
2022/08/11 00:46:21;;;;;;;5.10;2.40;;;;;15.70;97748.00;;;;110695;1249;42573;-63
2022/08/11 00:49:05;;;;;;;4.60;2.00;;;;;15.70;97752.60;;;;111168;1248;42439;-64
2022/08/11 00:51:39;;;;;;;4.60;2.00;;;;;15.70;97747.80;;;;110885;1248;41363;-63
2022/08/11 00:55:00;;;;;;;6.30;2.50;;;;;15.60;97749.60;;;;110888;1248;42570;-63
2022/08/11 00:57:53;;;;;;;5.30;2.50;;;;;15.60;97750.80;;;;110861;1250;42042;-63
2022/08/11 01:00:25;;;;;;;6.40;3.00;;;;;15.50;97753.80;;;;110774;1250;41496;-61
2022/08/11 01:03:12;;;;;;;6.50;2.80;;;;;15.50;97758.20;;;;110773;1249;41260;-63
2022/08/11 01:06:05;;;;;;;12.40;3.40;;;;;15.40;97761.00;;;;110969;1249;41720;-63
2022/08/11 01:08:40;;;;;;;6.90;2.70;;;;;15.20;97760.80;;;;110926;1250;41168;-63
2022/08/11 01:11:45;;;;;;;6.00;2.70;;;;;15.20;97764.80;;;;110638;1250;41180;-63
2022/08/11 01:14:51;;;;;;;5.50;2.50;;;;;15.10;97769.80;;;;110975;1248;42796;-63
2022/08/11 01:17:42;;;;;;;5.50;2.70;;;;;15.10;97765.60;;;;110727;1249;42413;-63
2022/08/11 01:20:37;;;;;;;7.50;2.60;;;;;15.10;97763.40;;;;110781;1251;41269;-63
2022/08/11 01:23:54;;;;;;;6.40;2.40;;;;;15.10;97759.20;;;;110588;1250;41647;-63
2022/08/11 01:26:50;;;;;;;5.00;2.30;;;;;15.10;97755.40;;;;110864;1249;41147;-63
2022/08/11 01:30:09;;;;;;;4.30;2.20;;;;;15.16;97750.80;;;;110995;1249;41248;-63
2022/08/11 01:33:36;;;;;;;6.50;2.60;;;;;15.20;97745.60;;;;110563;1250;41151;-62
2022/08/11 01:36:19;;;;;;;5.40;2.40;;;;;15.20;97738.20;;;;110506;1254;41154;-63
2022/08/11 01:39:20;;;;;;;6.10;2.60;;;;;15.20;97742.00;;;;110511;1254;41262;-62
2022/08/11 01:45:25;;;;;;;7.20;3.10;;;;;15.30;97734.80;;;;110890;1249;41943;-63
2022/08/11 01:47:55;;;;;;;7.40;2.90;;;;;15.30;97740.40;;;;110658;1250;41561;-63
2022/08/11 01:50:48;;;;;;;6.40;2.70;;;;;15.24;97741.40;;;;110676;1249;41715;-63
2022/08/11 01:53:35;;;;;;;7.50;3.20;;;;;15.20;97740.40;;;;110600;1250;41628;-63
2022/08/11 01:56:45;;;;;;;6.80;2.80;;;;;15.14;97743.20;;;;110696;1249;41203;-63
2022/08/11 01:59:23;;;;;;;4.80;2.20;;;;;15.18;97744.20;;;;110657;1252;41139;-65
2022/08/11 02:02:05;;;;;;;4.90;2.40;;;;;15.14;97740.00;;;;110596;1252;41263;-63
2022/08/11 02:05:01;;;;;;;7.00;2.40;;;;;15.14;97737.20;;;;110810;1249;41200;-63
2022/08/11 02:07:39;;;;;;;5.70;2.70;;;;;15.18;97733.40;;;;110711;1251;41156;-63
2022/08/11 02:13:37;;;;;;;6.00;2.20;;;;;15.10;97737.80;;;;110583;1250;41149;-63
2022/08/11 02:16:22;;;;;;;5.40;2.20;;;;;15.10;97731.40;;;;110576;1252;41350;-63
2022/08/11 02:25:19;;;;;;;4.40;2.20;;;;;15.00;97723.80;;;;110736;1250;41605;-64
2022/08/11 02:28:11;;;;;;;5.00;2.40;;;;;15.00;97723.20;;;;110934;1250;41180;-63
2022/08/11 02:34:43;;;;;;;6.60;2.20;;;;;14.90;97724.40;;;;110727;1249;41189;-63
2022/08/11 02:37:36;;;;;;;4.90;2.30;;;;;14.90;97723.20;;;;110430;1252;41146;-63
2022/08/11 02:40:15;;;;;;;6.60;2.40;;;;;14.90;97722.60;;;;110657;1251;42003;-63
2022/08/11 02:42:44;;;;;;;6.00;2.30;;;;;14.88;97722.60;;;;110668;1249;41604;-63
2022/08/11 02:45:39;;;;;;;6.80;2.50;;;;;14.80;97724.20;;;;110689;1249;42983;-63
2022/08/11 02:51:47;;;;;;;5.50;2.50;;;;;14.80;97727.00;;;;110711;1249;41953;-64
2022/08/11 02:54:49;;;;;;;5.80;2.90;;;;;14.72;97731.60;;;;110821;1250;41157;-63
2022/08/11 02:57:39;;;;;;;7.90;3.20;;;;;14.70;97729.00;;;;110793;1250;41255;-64
2022/08/11 03:00:13;;;;;;;5.20;2.60;;;;;14.70;97730.40;;;;110653;1250;42586;-63
2022/08/11 03:03:20;;;;;;;8.00;2.60;;;;;14.70;97729.40;;;;110549;1249;41616;-63
2022/08/11 03:06:09;;;;;;;5.70;2.30;;;;;14.60;97729.80;;;;110674;1250;41178;-63
2022/08/11 03:08:51;;;;;;;4.50;2.10;;;;;14.60;97727.20;;;;110818;1249;41153;-63
2022/08/11 03:18:09;;;;;;;6.30;2.60;;;;;14.60;97730.40;;;;110981;1249;41644;-63
2022/08/11 03:20:48;;;;;;;6.30;2.70;;;;;14.62;97734.20;;;;110724;1251;41126;-64
2022/08/11 03:23:41;;;;;;;4.30;2.20;;;;;14.70;97731.60;;;;110797;1250;41894;-63
2022/08/11 03:26:32;;;;;;;6.40;2.20;;;;;14.70;97729.80;;;;110856;1249;41252;-63
2022/08/11 03:29:01;;;;;;;5.70;2.50;;;;;14.70;97728.60;;;;110945;1248;41141;-63
2022/08/11 03:31:41;;;;;;;5.10;2.40;;;;;14.70;97732.20;;;;110863;1249;41214;-64
2022/08/11 03:34:19;;;;;;;7.90;3.10;;;;;14.78;97734.60;;;;110867;1250;41252;-63
2022/08/11 03:37:04;;;;;;;6.10;2.90;;;;;14.80;97735.80;;;;111154;1249;41601;-63
2022/08/11 03:41:41;;;;;;;7.70;2.70;;;;;14.80;97738.40;;;;110814;1248;41265;-63
2022/08/11 03:43:21;;;;;;;6.20;2.90;;;;;14.80;97737.60;;;;110819;1250;41735;-63
2022/08/11 03:46:11;;;;;;;6.00;2.30;;;;;14.80;97736.80;;;;110998;1249;41260;-63
2022/08/11 03:49:04;;;;;;;;;;;;;14.80;97738.00;;;;111022;1249;41273;-63
2022/08/11 03:51:54;;;;;;;4.40;2.00;;;;;14.80;97738.00;;;;110987;1250;41233;-63
2022/08/11 03:54:47;;;;;;;5.60;2.40;;;;;14.90;97736.80;;;;110987;1248;41628;-62
2022/08/11 03:57:42;;;;;;;6.10;2.70;;;;;14.90;97730.20;;;;110972;1249;41586;-64
2022/08/11 04:00:15;;;;;;;5.20;2.70;;;;;14.94;97727.60;;;;110927;1250;41871;-64
2022/08/11 04:03:04;;;;;;;5.00;2.40;;;;;15.00;97728.60;;;;110943;1249;42224;-63
2022/08/11 04:05:40;;;;;;;4.80;2.30;;;;;15.04;97731.80;;;;111026;1248;41258;-64
2022/08/11 04:08:46;;;;;;;4.20;2.10;;;;;15.10;97723.60;;;;110702;1249;42025;-63
2022/08/11 04:11:19;;;;;;;5.80;2.20;;;;;15.20;97719.40;;;;110909;1249;42389;-64
2022/08/11 04:17:27;;;;;;;5.50;2.20;;;;;16.02;97715.20;;;;110815;1250;41632;-63
2022/08/11 04:20:16;;;;;;;5.70;2.50;;;;;16.10;97717.60;;;;110653;1249;41387;-63
2022/08/11 04:23:13;;;;;;;6.90;2.80;;;;;16.10;97710.00;;;;110826;1251;41196;-62
2022/08/11 04:26:21;;;;;;;5.00;2.50;;;;;16.18;97706.20;;;;110879;1249;41153;-63
2022/08/11 04:28:54;;;;;;;17.10;3.20;;;;;16.92;97680.40;;;;110928;1249;41508;-63
2022/08/11 04:31:47;;;;;;;6.50;2.80;;;;;17.78;97675.40;;;;110938;1249;41141;-63
2022/08/11 04:34:31;;;;;;;6.40;2.90;;;;;18.68;97672.20;;;;110795;1250;41609;-63
2022/08/11 04:37:33;;;;;;;5.80;2.80;;;;;19.26;97669.40;;;;110937;1251;41954;-63
2022/08/11 04:40:29;;;;;;;9.50;3.10;;;;;19.80;97664.40;;;;110839;1250;41605;-64
2022/08/11 04:43:30;;;;;;;10.00;2.70;;;;;20.40;97667.20;;;;110795;1249;40770;-64
2022/08/11 04:46:24;;;;;;;6.00;2.80;;;;;20.88;97660.40;;;;110654;1252;41269;-64
2022/08/11 05:02:23;;;;;;;4.50;2.30;;;;;24.00;97660.80;;;;110880;1250;41246;-65
2022/08/11 05:05:31;;;;;;;6.40;2.40;;;;;24.40;97659.20;;;;110630;1249;41417;-65
2022/08/11 05:08:25;;;;;;;5.10;2.20;;;;;24.90;97661.80;;;;110956;1249;41525;-65
2022/08/11 05:11:12;;;;;;;5.80;2.40;;;;;25.14;97653.40;;;;110729;1250;41642;-64
2022/08/11 05:34:53;;;;;;;4.10;1.90;;;;;27.38;97663.80;;;;110903;1247;41143;-64
2022/08/11 05:37:28;;;;;;;5.60;1.90;;;;;27.60;97663.40;;;;110699;1249;41767;-64
2022/08/11 05:57:29;;;;;;;3.40;1.80;;;;;29.50;97660.80;;;;110727;1251;42209;-65
2022/08/11 06:00:16;;;;;;;4.50;1.70;;;;;29.80;97663.60;;;;110943;1249;41713;-64
2022/08/11 06:02:56;;;;;;;5.20;1.80;;;;;29.80;97662.60;;;;110986;1250;42842;-64
2022/08/11 06:05:34;;;;;;;3.20;1.50;;;;;30.00;97664.40;;;;110931;1250;41155;-64
2022/08/11 06:08:12;;;;;;;2.10;1.30;;;;;30.16;97664.20;;;;110800;1248;41154;-64
2022/08/11 06:10:44;;;;;;;4.00;1.60;;;;;30.40;97664.60;;;;110885;1250;41256;-64
2022/08/11 06:13:16;;;;;;;3.50;1.60;;;;;30.50;97662.40;;;;110925;1250;41261;-64
2022/08/11 06:15:48;;;;;;;5.00;1.80;;;;;30.72;97663.00;;;;110671;1249;41159;-65
2022/08/11 06:18:17;;;;;;;2.60;1.50;;;;;31.04;97663.00;;;;111061;1249;41373;-65
2022/08/11 06:20:53;;;;;;;5.50;1.70;;;;;31.10;97661.20;;;;110758;1250;41265;-65
2022/08/11 06:23:24;;;;;;;4.60;1.80;;;;;30.12;97663.60;;;;111018;1248;41922;-65
2022/08/11 06:25:54;;;;;;;3.90;1.50;;;;;30.16;97672.80;;;;111122;1250;41143;-64
2022/08/11 06:28:32;;;;;;;3.40;1.60;;;;;30.30;97673.20;;;;110774;1250;41388;-65
2022/08/11 06:31:02;;;;;;;2.80;1.50;;;;;30.46;97674.60;;;;110833;1250;41255;-64
2022/08/11 06:33:44;;;;;;;11.30;2.20;;;;;30.02;97673.20;;;;110826;1249;41619;-65
2022/08/11 06:36:37;;;;;;;3.10;1.60;;;;;30.20;97672.40;;;;110801;1249;41145;-64
2022/08/11 06:39:50;;;;;;;5.00;1.80;;;;;30.36;97674.00;;;;110861;1250;41146;-64
2022/08/11 06:42:25;;;;;;;2.30;1.50;;;;;30.24;97674.80;;;;110955;1249;40879;-64
2022/08/11 06:45:13;;;;;;;2.10;1.40;;;;;30.10;97679.20;;;;110932;1249;41454;-65
2022/08/11 06:47:46;;;;;;;2.60;1.40;;;;;30.74;97682.00;;;;110934;1249;41452;-64
2022/08/11 06:53:10;;;;;;;2.80;1.50;;;;;31.90;97683.40;;;;110973;1250;42199;-65
2022/08/11 07:02:04;;;;;;;3.10;1.70;;;;;32.58;97677.20;;;;110983;1250;41399;-65
2022/08/11 07:04:49;;;;;;;3.80;1.60;;;;;32.20;97681.20;;;;110984;1249;41160;-65
2022/08/11 07:17:16;;;;;;;3.10;1.40;;;;;32.22;97682.40;;;;110912;1248;41158;-65
2022/08/11 07:31:13;;;;;;;4.30;1.60;;;;;31.04;97680.20;;;;110833;1249;41875;-66
2022/08/11 07:33:50;;;;;;;2.60;1.40;;;;;31.60;97678.60;;;;111064;1250;41182;-65
2022/08/11 07:36:41;;;;;;;6.80;1.80;;;;;32.16;97674.80;;;;110930;1249;41143;-65
2022/08/11 07:39:16;;;;;;;4.10;1.70;;;;;31.88;97670.80;;;;110816;1251;41620;-66
2022/08/11 07:41:52;;;;;;;6.10;1.90;;;;;31.14;97672.20;;;;111041;1249;41159;-65
2022/08/11 07:44:24;;;;;;;3.40;1.60;;;;;30.96;97670.00;;;;110934;1250;42256;-65
2022/08/11 07:52:35;;;;;;;4.80;1.60;;;;;30.14;97670.00;;;;110776;1250;41343;-64
2022/08/11 07:55:06;;;;;;;3.10;1.50;;;;;30.00;97668.80;;;;111069;1250;41155;-65
2022/08/11 08:17:57;;;;;;;4.70;1.50;;;;;33.72;97645.80;;;;111124;1250;41265;-66
2022/08/11 08:20:44;;;;;;;3.20;1.40;;;;;34.30;97643.20;;;;111079;1250;41604;-66
2022/08/11 08:23:13;;;;;;;4.80;1.60;;;;;33.52;97636.20;;;;111147;1249;41222;-65
2022/08/11 08:25:43;;;;;;;2.80;1.40;;;;;33.02;97638.40;;;;110921;1250;41894;-64
2022/08/11 08:28:16;;;;;;;4.00;1.50;;;;;32.16;97640.80;;;;110888;1250;42664;-64
2022/08/11 08:30:48;;;;;;;2.60;1.50;;;;;32.96;97640.40;;;;110821;1250;41639;-65
2022/08/11 08:33:30;;;;;;;2.40;1.30;;;;;33.60;97635.60;;;;110695;1250;41278;-64
2022/08/11 08:36:10;;;;;;;2.40;1.30;;;;;33.98;97636.20;;;;111106;1250;41140;-65
2022/08/11 08:38:53;;;;;;;1.90;1.30;;;;;34.48;97633.00;;;;110842;1250;41576;-64
2022/08/11 08:41:28;;;;;;;4.30;1.60;;;;;35.32;97636.80;;;;110955;1249;41353;-64
2022/08/11 08:44:01;;;;;;;2.20;1.40;;;;;35.70;97636.80;;;;110861;1250;41654;-65
2022/08/11 08:46:54;;;;;;;2.50;1.20;;;;;35.42;97630.80;;;;110962;1250;41137;-64
2022/08/11 08:49:28;;;;;;;3.00;1.20;;;;;35.54;97630.40;;;;110988;1249;41381;-65
2022/08/11 08:52:02;;;;;;;2.80;1.40;;;;;35.24;97630.20;;;;110865;1248;41158;-65
2022/08/11 08:54:53;;;;;;;1.80;1.30;;;;;34.28;97631.20;;;;110751;1250;41201;-65
2022/08/11 08:57:23;;;;;;;3.00;1.30;;;;;33.62;97635.40;;;;110680;1250;41854;-65
2022/08/11 08:59:51;;;;;;;3.30;1.40;;;;;33.56;97635.40;;;;110653;1251;41930;-65
2022/08/11 09:02:24;;;;;;;2.20;1.30;;;;;33.78;97638.20;;;;111114;1250;41267;-65
2022/08/11 09:05:11;;;;;;;4.10;1.70;;;;;34.42;97635.00;;;;110957;1250;41587;-64
2022/08/11 09:07:40;;;;;;;2.30;1.40;;;;;33.56;97647.60;;;;110758;1252;41451;-64
2022/08/11 09:10:10;;;;;;;3.70;1.50;;;;;32.14;97646.00;;;;110623;1250;41265;-65
2022/08/11 09:12:43;;;;;;;2.20;1.40;;;;;30.32;97649.00;;;;111048;1250;41145;-65
2022/08/11 09:15:13;;;;;;;2.90;1.40;;;;;29.90;97650.20;;;;111006;1250;41262;-65
2022/08/11 09:17:57;;;;;;;3.30;1.40;;;;;29.48;97653.60;;;;110659;1252;42183;-65
2022/08/11 09:20:28;;;;;;;4.80;1.60;;;;;29.10;97652.80;;;;110640;1250;41722;-65
2022/08/11 09:29:00;;;;;;;5.60;1.60;;;;;27.90;97642.40;;;;110878;1250;42250;-64
2022/08/11 09:31:32;;;;;;;1.70;1.30;;;;;28.72;97646.80;;;;110953;1250;41131;-65
2022/08/11 09:34:09;;;;;;;3.20;1.60;;;;;28.92;97642.80;;;;110777;1251;41264;-65
2022/08/11 09:42:19;;;;;;;2.80;1.40;;;;;30.68;97629.60;;;;110948;1250;41136;-65
2022/08/11 09:44:51;;;;;;;1.30;1.20;;;;;30.44;97623.40;;;;110998;1251;41195;-65
2022/08/11 09:47:23;;;;;;;3.30;1.50;;;;;30.78;97621.60;;;;110767;1251;41805;-66
2022/08/11 09:49:58;;;;;;;3.90;1.40;;;;;31.78;97622.00;;;;111058;1250;41150;-66
2022/08/11 09:52:31;;;;;;;1.10;1.00;;;;;32.08;97624.80;;;;111037;1248;42348;-65
2022/08/11 09:55:05;;;;;;;3.30;1.40;;;;;32.96;97621.40;;;;110901;1249;41274;-66
2022/08/11 10:01:01;;;;;;;1.20;1.00;;;;;35.00;97611.00;;;;110543;1253;41380;-66
2022/08/11 10:03:30;;;;;;;;;;;;;35.42;97607.80;;;;110292;1254;41261;-66
2022/08/11 10:08:51;;;;;;;1.70;1.30;;;;;36.98;97603.60;;;;110845;1250;41265;-66
2022/08/11 10:11:22;;;;;;;2.20;1.30;;;;;37.30;97606.60;;;;111074;1250;41114;-65
2022/08/11 10:17:05;;;;;;;4.10;1.40;;;;;37.38;97595.60;;;;110749;1249;41626;-65
2022/08/11 10:19:38;;;;;;;2.50;1.20;;;;;37.90;97594.00;;;;110690;1250;42541;-66
2022/08/11 10:27:53;;;;;;;2.20;1.40;;;;;37.32;97606.60;;;;110734;1251;41622;-66
2022/08/11 10:36:27;;;;;;;1.60;1.10;;;;;36.32;97590.80;;;;110799;1251;42465;-65
2022/08/11 10:38:56;;;;;;;;;;;;;36.42;97586.80;;;;111085;1250;41133;-66
2022/08/11 10:44:42;;;;;;;1.80;1.10;;;;;37.26;97584.00;;;;111077;1250;41713;-65
2022/08/11 10:58:50;;;;;;;2.30;1.20;;;;;37.08;97577.20;;;;110974;1250;41180;-66
2022/08/11 11:01:24;;;;;;;2.30;1.40;;;;;37.00;97575.20;;;;110748;1249;41265;-66
2022/08/11 11:04:23;;;;;;;2.40;1.10;;;;;36.68;97585.40;;;;110681;1251;41736;-66
2022/08/11 11:07:02;;;;;;;1.70;1.10;;;;;35.62;97589.00;;;;110945;1250;41403;-66
2022/08/11 11:09:39;;;;;;;1.10;1.00;;;;;34.32;97585.60;;;;110992;1251;41146;-66
2022/08/11 11:18:12;;;;;;;1.70;1.10;;;;;33.00;97579.80;;;;110631;1250;41146;-66
2022/08/11 11:20:51;;;;;;;3.20;1.10;;;;;32.94;97585.80;;;;110888;1250;42422;-66
2022/08/11 11:23:33;;;;;;;3.20;1.20;;;;;32.80;97583.80;;;;111105;1248;41210;-65
2022/08/11 11:26:20;;;;;;;1.80;1.20;;;;;32.54;97584.00;;;;110825;1250;41656;-64
2022/08/11 11:29:13;;;;;;;2.30;1.30;;;;;32.24;97581.80;;;;110871;1250;41204;-65
2022/08/11 11:32:05;;;;;;;1.30;1.10;;;;;32.96;97572.00;;;;110887;1250;41155;-65
2022/08/11 11:35:07;;;;;;;1.50;1.10;;;;;34.58;97569.80;;;;111006;1250;41955;-65
2022/08/11 11:37:37;;;;;;;1.60;1.10;;;;;36.28;97560.40;;;;111073;1250;41620;-67
2022/08/11 11:40:15;;;;;;;2.20;1.10;;;;;37.60;97559.80;;;;110665;1250;41909;-66
2022/08/11 11:42:45;;;;;;;2.70;1.20;;;;;38.26;97553.20;;;;111048;1250;41147;-66
2022/08/11 11:45:18;;;;;;;2.00;1.30;;;;;38.52;97550.20;;;;110769;1248;41264;-66
2022/08/11 11:47:53;;;;;;;1.80;1.10;;;;;38.86;97549.80;;;;110962;1250;41261;-66
2022/08/11 11:50:35;;;;;;;1.40;1.00;;;;;38.90;97545.20;;;;111068;1248;41596;-66
2022/08/11 11:53:07;;;;;;;2.50;0.90;;;;;39.32;97544.80;;;;110951;1250;41707;-65
2022/08/11 11:55:37;;;;;;;1.40;1.10;;;;;39.40;97549.40;;;;110877;1250;41641;-66
2022/08/11 12:03:43;;;;;;;2.20;1.10;;;;;38.92;97537.80;;;;110892;1250;41372;-65
2022/08/11 12:06:13;;;;;;;1.20;0.90;;;;;39.68;97539.80;;;;110720;1251;41874;-67
2022/08/11 12:08:43;;;;;;;3.90;1.40;;;;;40.10;97528.80;;;;110804;1250;42184;-67
2022/08/11 12:14:05;;;;;;;3.00;1.10;;;;;40.60;97533.40;;;;110919;1248;42118;-66
2022/08/11 12:16:40;;;;;;;2.20;1.00;;;;;40.72;97531.60;;;;110907;1250;41739;-66
2022/08/11 12:19:22;;;;;;;1.70;1.00;;;;;41.06;97525.20;;;;110753;1251;41141;-66
2022/08/11 12:27:29;;;;;;;1.60;1.10;;;;;39.70;97534.80;;;;110818;1250;41135;-66
2022/08/11 12:30:00;;;;;;;1.50;1.00;;;;;39.04;97535.40;;;;110729;1250;41515;-66
2022/08/11 12:32:31;;;;;;;1.30;0.90;;;;;38.16;97536.20;;;;110790;1250;42191;-66
2022/08/11 12:35:01;;;;;;;1.70;0.90;;;;;37.50;97533.80;;;;110972;1247;41141;-66
2022/08/11 12:37:42;;;;;;;2.90;1.20;;;;;36.90;97535.40;;;;111005;1250;41147;-66
2022/08/11 12:46:21;;;;;;;2.00;1.30;;;;;33.56;97535.80;;;;110731;1250;41157;-66
2022/08/11 12:52:00;;;;;;;3.50;1.40;;;;;32.60;97541.20;;;;110989;1248;41616;-65
2022/08/11 12:54:50;;;;;;;2.20;1.30;;;;;32.02;97538.60;;;;110999;1251;41265;-65
2022/08/11 13:06:00;;;;;;;4.10;1.70;;;;;30.26;97532.40;;;;110885;1250;41167;-65
2022/08/11 13:08:32;;;;;;;2.80;1.30;;;;;30.26;97531.60;;;;110830;1251;42171;-64
2022/08/11 13:13:55;;;;;;;1.90;1.20;;;;;30.00;97526.00;;;;110823;1251;41199;-65
2022/08/11 13:16:31;;;;;;;2.50;1.40;;;;;29.82;97529.40;;;;110842;1250;41143;-65
2022/08/11 13:19:01;;;;;;;3.40;1.50;;;;;29.80;97526.60;;;;110906;1251;41189;-66
2022/08/11 13:21:30;;;;;;;3.10;1.50;;;;;29.70;97522.80;;;;110811;1251;41627;-64
2022/08/11 13:24:05;;;;;;;6.40;1.30;;;;;29.46;97525.00;;;;111064;1250;41415;-66
2022/08/11 13:26:39;;;;;;;3.40;1.40;;;;;29.30;97524.60;;;;110850;1251;41842;-65
2022/08/11 13:29:24;;;;;;;1.40;1.30;;;;;29.00;97527.00;;;;110610;1254;42919;-64
2022/08/11 13:31:58;;;;;;;2.00;1.20;;;;;28.80;97525.80;;;;110826;1251;42213;-64
2022/08/11 13:34:34;;;;;;;2.70;1.50;;;;;28.80;97522.20;;;;110900;1251;41144;-65
2022/08/11 13:37:22;;;;;;;1.60;1.30;;;;;28.60;97523.20;;;;110781;1251;41354;-66
2022/08/11 13:40:20;;;;;;;2.90;1.40;;;;;28.80;97519.80;;;;110988;1251;41752;-65
2022/08/11 13:43:05;;;;;;;2.30;1.40;;;;;29.04;97514.20;;;;110841;1247;41490;-66
2022/08/11 13:45:36;;;;;;;5.20;1.50;;;;;29.30;97514.80;;;;110852;1251;41549;-64
2022/08/11 13:48:16;;;;;;;2.10;1.30;;;;;29.36;97515.40;;;;110721;1251;41325;-64
2022/08/11 13:54:26;;;;;;;2.10;1.40;;;;;29.40;97508.20;;;;110642;1254;41181;-65
2022/08/11 13:57:22;;;;;;;1.50;1.20;;;;;29.30;97514.60;;;;110793;1251;41161;-65
2022/08/11 14:00:24;;;;;;;2.10;1.30;;;;;29.20;97513.60;;;;110741;1252;41061;-64
2022/08/11 14:03:02;;;;;;;2.70;1.40;;;;;29.10;97513.40;;;;110591;1250;41140;-64
2022/08/11 14:05:50;;;;;;;2.20;1.40;;;;;29.10;97517.00;;;;110556;1254;41159;-65
2022/08/11 14:08:27;;;;;;;2.50;1.50;;;;;29.10;97513.80;;;;110527;1253;41256;-64
2022/08/11 14:14:25;;;;;;;2.00;1.30;;;;;28.80;97510.80;;;;110684;1252;41268;-65
2022/08/11 14:16:56;;;;;;;3.10;1.30;;;;;28.80;97514.20;;;;110337;1251;41167;-64
2022/08/11 14:19:26;;;;;;;2.40;1.40;;;;;28.88;97515.80;;;;110802;1251;41161;-64
2022/08/11 14:22:08;;;;;;;2.00;1.20;;;;;29.00;97522.20;;;;110869;1251;40818;-64
2022/08/11 14:24:40;;;;;;;2.60;1.20;;;;;29.10;97519.80;;;;110757;1251;41605;-66
2022/08/11 14:27:16;;;;;;;2.00;1.20;;;;;29.20;97521.00;;;;110760;1251;41731;-65
2022/08/11 14:30:53;;;;;;;3.40;1.50;;;;;29.20;97516.40;;;;110681;1252;41339;-66
2022/08/11 14:32:56;;;;;;;2.00;1.30;;;;;29.20;97510.00;;;;110622;1251;41269;-64
2022/08/11 14:35:27;;;;;;;2.30;1.30;;;;;28.50;97506.60;;;;110618;1252;41180;-66
2022/08/11 14:37:58;;;;;;;1.90;1.30;;;;;28.26;97511.60;;;;110893;1251;41595;-65
2022/08/11 14:49:16;;;;;;;1.80;1.30;;;;;28.16;97497.00;;;;110667;1251;41711;-64
2022/08/11 14:51:47;;;;;;;2.00;1.20;;;;;28.24;97497.80;;;;110777;1250;41317;-66
2022/08/11 14:57:04;;;;;;;2.00;1.20;;;;;28.20;97495.20;;;;110764;1249;41262;-65
2022/08/11 14:59:36;;;;;;;3.50;1.30;;;;;28.20;97495.40;;;;110925;1251;41722;-65
2022/08/11 15:04:57;;;;;;;;;;;;;28.20;97492.80;;;;110626;1251;41167;-64
2022/08/11 15:07:29;;;;;;;1.80;1.10;;;;;27.92;97490.20;;;;110926;1248;42152;-64
2022/08/11 15:10:05;;;;;;;2.30;1.20;;;;;28.00;97490.20;;;;110833;1251;41166;-64
2022/08/11 15:12:43;;;;;;;2.00;1.20;;;;;28.00;97490.80;;;;111023;1249;42052;-64
2022/08/11 15:18:03;;;;;;;1.00;0.90;;;;;28.00;97490.60;;;;110746;1250;42119;-64
2022/08/11 15:26:13;;;;;;;1.90;1.20;;;;;27.90;97489.20;;;;110850;1249;41147;-64
2022/08/11 15:37:25;;;;;;;1.30;1.20;;;;;27.10;97484.80;;;;110612;1250;42382;-64
2022/08/11 15:46:01;;;;;;;6.40;2.40;;;;;26.70;97476.80;;;;110781;1250;41728;-64
2022/08/11 15:48:32;;;;;;;11.10;2.60;;;;;26.52;97475.20;;;;110693;1248;41612;-64
2022/08/11 15:51:10;;;;;;;2.60;1.40;;;;;26.38;97475.40;;;;110997;1248;41615;-64
2022/08/11 15:53:50;;;;;;;5.10;2.10;;;;;26.44;97472.60;;;;111018;1247;41673;-64
2022/08/11 15:56:29;;;;;;;3.70;1.70;;;;;26.60;97472.40;;;;110575;1251;41264;-64
2022/08/11 16:05:01;;;;;;;1.50;1.10;;;;;26.70;97470.60;;;;110691;1250;41155;-65
2022/08/11 16:07:34;;;;;;;4.30;1.60;;;;;26.70;97473.00;;;;110977;1250;41597;-64
2022/08/11 16:10:20;;;;;;;4.40;1.80;;;;;26.60;97475.80;;;;111009;1250;41178;-64
2022/08/11 16:18:39;;;;;;;4.00;1.80;;;;;26.16;97476.40;;;;110786;1250;41608;-64
2022/08/11 16:21:16;;;;;;;2.00;1.30;;;;;26.10;97479.40;;;;110710;1250;41220;-64
2022/08/11 16:23:56;;;;;;;1.90;1.30;;;;;26.20;97482.60;;;;111037;1248;41280;-64
2022/08/11 16:26:25;;;;;;;2.70;1.50;;;;;26.20;97483.80;;;;110712;1250;41147;-63
2022/08/11 16:29:15;;;;;;;4.20;1.90;;;;;26.20;97485.20;;;;110999;1247;41276;-63
2022/08/11 16:32:15;;;;;;;3.20;1.60;;;;;26.00;97485.40;;;;111052;1247;42331;-64
2022/08/11 16:40:10;;;;;;;4.90;2.10;;;;;25.68;97487.80;;;;110783;1251;41210;-65
2022/08/11 16:48:28;;;;;;;4.10;1.90;;;;;25.46;97489.20;;;;110763;1250;41498;-63
2022/08/11 16:51:09;;;;;;;3.80;1.60;;;;;25.40;97490.40;;;;111002;1249;41796;-64
2022/08/11 16:53:41;;;;;;;5.60;2.20;;;;;25.30;97486.60;;;;110218;1248;1444383;-63
2022/08/11 16:56:31;;;;;;;7.30;2.20;;;;;25.30;97487.20;;;;111037;1247;41558;-63
2022/08/11 16:59:13;;;;;;;5.50;1.80;;;;;25.20;97488.60;;;;111076;1247;41913;-63
2022/08/11 17:01:51;;;;;;;3.50;1.70;;;;;25.20;97487.60;;;;110919;1249;41157;-63
2022/08/11 17:13:35;;;;;;;3.00;1.50;;;;;24.80;97496.60;;;;111203;1250;41269;-64
2022/08/11 17:16:05;;;;;;;1.60;1.30;;;;;24.68;97496.60;;;;110934;1249;41636;-63
2022/08/11 17:18:55;;;;;;;3.00;1.40;;;;;24.60;97494.60;;;;110847;1250;41160;-64
2022/08/11 17:24:39;;;;;;;2.10;1.30;;;;;24.30;97498.00;;;;110827;1251;41606;-64
2022/08/11 17:27:09;;;;;;;2.90;1.40;;;;;24.20;97498.60;;;;111095;1249;41256;-64
2022/08/11 17:29:51;;;;;;;4.20;1.50;;;;;24.10;97499.80;;;;110986;1250;41164;-65
2022/08/11 17:35:31;;;;;;;2.30;1.30;;;;;23.80;97499.60;;;;110876;1250;41688;-64
2022/08/11 17:38:17;;;;;;;2.90;1.20;;;;;23.70;97502.80;;;;110792;1251;41127;-64
2022/08/11 17:49:36;;;;;;;2.20;1.40;;;;;23.10;97517.60;;;;110875;1250;41248;-64
2022/08/11 18:00:30;;;;;;;3.30;1.70;;;;;22.70;97533.20;;;;110839;1251;42142;-63
2022/08/11 18:05:48;;;;;;;3.90;1.80;;;;;22.50;97534.40;;;;111213;1249;41343;-64
